createdAt,value
2022-12-04T00:01:09.884Z,86565.72
2022-12-04T00:03:37.717Z,86579.66
2022-12-04T00:06:13.532Z,86511.63
2022-12-04T00:08:40.838Z,86588.22
2022-12-04T00:11:09.348Z,86582.06
2022-12-04T00:13:37.397Z,86545.13
2022-12-04T00:16:05.729Z,86585.38
2022-12-04T00:18:32.854Z,86586.88
2022-12-04T00:20:59.819Z,86582.78
2022-12-04T00:23:26.837Z,86561.66
2022-12-04T00:26:00.425Z,86534.22
2022-12-04T00:28:27.372Z,86538.06
2022-12-04T00:30:54.320Z,86515.38
2022-12-04T00:33:21.405Z,86562.47
2022-12-04T00:35:48.425Z,86565.81
2022-12-04T00:38:15.345Z,86543.00
2022-12-04T00:40:50.444Z,86572.41
2022-12-04T00:43:17.530Z,86555.06
2022-12-04T00:45:44.743Z,86559.78
2022-12-04T00:48:12.020Z,86582.16
2022-12-04T00:50:39.104Z,86561.19
2022-12-04T00:53:06.161Z,86527.94
2022-12-04T00:55:39.670Z,86569.06
2022-12-04T00:58:08.009Z,86536.97
2022-12-04T01:00:39.356Z,86576.09
2022-12-04T01:03:07.694Z,86574.69
2022-12-04T01:05:43.176Z,86567.19
2022-12-04T01:08:11.851Z,86497.69
2022-12-04T01:10:41.919Z,86571.44
2022-12-04T01:13:09.091Z,86520.06
2022-12-04T01:15:40.232Z,86572.84
2022-12-04T01:18:07.658Z,86534.53
2022-12-04T01:20:34.768Z,86569.34
2022-12-04T01:23:01.694Z,86544.13
2022-12-04T01:25:28.687Z,86572.63
2022-12-04T01:27:55.585Z,86538.56
2022-12-04T01:30:22.614Z,86540.50
2022-12-04T01:32:50.103Z,86575.34
2022-12-04T01:35:17.213Z,86567.06
2022-12-04T01:37:44.164Z,86582.44
2022-12-04T01:40:17.316Z,86569.09
2022-12-04T01:42:44.306Z,86578.25
2022-12-04T01:45:42.631Z,86582.34
2022-12-04T01:48:35.988Z,86550.38
2022-12-04T01:51:11.262Z,86533.63
2022-12-04T01:53:42.318Z,86580.25
2022-12-04T01:56:11.122Z,86573.44
2022-12-04T01:58:44.274Z,86572.00
2022-12-04T02:01:11.421Z,86574.88
2022-12-04T02:03:39.212Z,86578.25
2022-12-04T02:06:07.142Z,86576.88
2022-12-04T02:08:38.564Z,86539.31
2022-12-04T02:11:24.310Z,86567.19
2022-12-04T02:14:03.608Z,86561.03
2022-12-04T02:16:40.760Z,86556.78
2022-12-04T02:19:38.767Z,86567.16
2022-12-04T02:22:32.127Z,86539.97
2022-12-04T02:25:13.838Z,86565.72
2022-12-04T02:27:40.687Z,86564.31
2022-12-04T02:30:11.675Z,86556.78
2022-12-04T02:32:50.763Z,86545.56
2022-12-04T02:35:20.456Z,86556.16
2022-12-04T02:37:53.606Z,86547.03
2022-12-04T02:40:40.789Z,86565.72
2022-12-04T02:43:33.044Z,86530.28
2022-12-04T02:46:07.351Z,86558.78
2022-12-04T02:48:40.537Z,86533.13
2022-12-04T02:51:12.459Z,86524.00
2022-12-04T02:53:44.901Z,86527.50
2022-12-04T02:56:17.172Z,86540.00
2022-12-04T02:58:49.671Z,86558.78
2022-12-04T03:01:21.950Z,86510.19
2022-12-04T03:03:51.966Z,86561.47
2022-12-04T03:06:22.170Z,86560.78
2022-12-04T03:08:58.020Z,86507.91
2022-12-04T03:11:28.802Z,86527.09
2022-12-04T03:14:02.097Z,86534.72
2022-12-04T03:16:37.670Z,86568.16
2022-12-04T03:19:19.993Z,86567.41
2022-12-04T03:21:54.132Z,86524.91
2022-12-04T03:24:25.037Z,86568.03
2022-12-04T03:27:17.879Z,86568.13
2022-12-04T03:29:54.175Z,86564.03
2022-12-04T03:32:24.408Z,86566.06
2022-12-04T03:34:55.382Z,86559.78
2022-12-04T03:37:41.521Z,86540.41
2022-12-04T03:40:22.232Z,86557.00
2022-12-04T03:42:56.827Z,86557.59
2022-12-04T03:45:39.052Z,86553.97
2022-12-04T03:48:12.006Z,86543.16
2022-12-04T03:50:47.386Z,86494.47
2022-12-04T03:53:25.883Z,86522.31
2022-12-04T03:56:00.345Z,86512.56
2022-12-04T03:58:31.224Z,86537.69
2022-12-04T04:01:01.994Z,86538.31
2022-12-04T04:03:33.856Z,86527.00
2022-12-04T04:06:09.962Z,86538.00
2022-12-04T04:08:41.636Z,86541.53
2022-12-04T04:11:18.106Z,86542.88
2022-12-04T04:14:12.891Z,86541.50
2022-12-04T04:17:04.641Z,86537.28
2022-12-04T04:20:07.631Z,86515.59
2022-12-04T04:22:56.327Z,86495.44
2022-12-04T04:25:27.025Z,86529.81
2022-12-04T04:27:55.812Z,86491.28
2022-12-04T04:30:23.168Z,86525.94
2022-12-04T04:32:57.145Z,86491.16
2022-12-04T04:35:42.597Z,86505.06
2022-12-04T04:38:28.090Z,86541.13
2022-12-04T04:41:03.310Z,86513.22
2022-12-04T04:43:40.143Z,86547.31
2022-12-04T04:46:29.828Z,86549.38
2022-12-04T04:49:00.762Z,86543.94
2022-12-04T04:51:30.524Z,86467.22
2022-12-04T04:54:00.867Z,86550.75
2022-12-04T04:56:28.757Z,86550.75
2022-12-04T04:58:55.709Z,86556.22
2022-12-04T05:01:28.849Z,86495.06
2022-12-04T05:03:55.983Z,86554.78
2022-12-04T05:06:23.004Z,86550.44
2022-12-04T05:08:49.994Z,86562.38
2022-12-04T05:11:17.754Z,86549.16
2022-12-04T05:13:44.852Z,86566.44
2022-12-04T05:16:15.496Z,86569.78
2022-12-04T05:19:02.447Z,86574.06
2022-12-04T05:21:29.660Z,86528.84
2022-12-04T05:23:56.816Z,86531.47
2022-12-04T05:26:24.083Z,86555.13
2022-12-04T05:28:51.112Z,86572.50
2022-12-04T05:31:18.204Z,86536.25
2022-12-04T05:33:45.167Z,86589.13
2022-12-04T05:36:13.523Z,86591.22
2022-12-04T05:38:40.455Z,86567.75
2022-12-04T05:41:08.283Z,86591.28
2022-12-04T05:43:35.953Z,86456.50
2022-12-04T05:46:07.866Z,86604.69
2022-12-04T05:48:35.876Z,86603.41
2022-12-04T05:51:10.695Z,86594.25
2022-12-04T05:53:38.410Z,86587.38
2022-12-04T05:56:07.606Z,86580.34
2022-12-04T05:58:38.877Z,86555.47
2022-12-04T06:01:21.006Z,86599.84
2022-12-04T06:03:47.957Z,86589.47
2022-12-04T06:06:21.427Z,86562.94
2022-12-04T06:08:50.445Z,86589.91
2022-12-04T06:11:23.542Z,86602.53
2022-12-04T06:13:51.257Z,86608.28
2022-12-04T06:16:22.735Z,86606.19
2022-12-04T06:18:55.950Z,86605.28
2022-12-04T06:21:25.374Z,86616.44
2022-12-04T06:23:53.537Z,86614.34
2022-12-04T06:26:21.103Z,86610.31
2022-12-04T06:28:48.240Z,86597.91
2022-12-04T06:31:17.033Z,86609.00
2022-12-04T06:33:44.044Z,86608.94
2022-12-04T06:36:13.604Z,86575.56
2022-12-04T06:38:41.251Z,86597.97
2022-12-04T06:41:10.600Z,86597.44
2022-12-04T06:43:38.330Z,86573.59
2022-12-04T06:46:06.817Z,86611.84
2022-12-04T06:48:34.699Z,86597.31
2022-12-04T06:51:11.540Z,86575.72
2022-12-04T06:53:39.751Z,86583.56
2022-12-04T06:56:10.365Z,86615.09
2022-12-04T06:58:37.647Z,86598.34
2022-12-04T07:01:12.661Z,86621.56
2022-12-04T07:03:43.545Z,86583.56
2022-12-04T07:06:14.594Z,86607.16
2022-12-04T07:08:43.560Z,86626.31
2022-12-04T07:11:11.130Z,86581.22
2022-12-04T07:13:38.430Z,86559.13
2022-12-04T07:16:08.149Z,86604.53
2022-12-04T07:18:36.319Z,86594.97
2022-12-04T07:21:08.160Z,86593.50
2022-12-04T07:23:36.249Z,86589.38
2022-12-04T07:26:12.486Z,86607.56
2022-12-04T07:28:40.454Z,86594.53
2022-12-04T07:31:13.120Z,86564.66
2022-12-04T07:33:41.019Z,86598.16
2022-12-04T07:36:11.221Z,86613.31
2022-12-04T07:38:38.199Z,86559.88
2022-12-04T07:41:07.061Z,86609.34
2022-12-04T07:43:34.628Z,86601.16
2022-12-04T07:46:07.654Z,86576.69
2022-12-04T07:48:34.812Z,86606.66
2022-12-04T07:51:29.241Z,86610.94
2022-12-04T07:54:05.810Z,86612.44
2022-12-04T07:56:33.647Z,86599.31
2022-12-04T07:59:00.936Z,86607.19
2022-12-04T08:01:28.342Z,86607.94
2022-12-04T08:03:58.128Z,86571.16
2022-12-04T08:06:27.471Z,86584.47
2022-12-04T08:08:55.184Z,86609.59
2022-12-04T08:11:24.595Z,86598.34
2022-12-04T08:14:00.305Z,86595.09
2022-12-04T08:16:29.159Z,86609.75
2022-12-04T08:18:57.105Z,86616.03
2022-12-04T08:21:26.455Z,86584.78
2022-12-04T08:23:54.880Z,86619.81
2022-12-04T08:26:24.585Z,86610.91
2022-12-04T08:28:58.732Z,86586.69
2022-12-04T08:31:29.165Z,86582.78
2022-12-04T08:33:58.650Z,86601.16
2022-12-04T08:36:26.634Z,86587.25
2022-12-04T08:38:53.768Z,86585.22
2022-12-04T08:41:24.152Z,86576.31
2022-12-04T08:43:54.870Z,86577.72
2022-12-04T08:46:22.742Z,86575.09
2022-12-04T08:48:54.246Z,86589.13
2022-12-04T08:51:24.121Z,86591.94
2022-12-04T08:53:56.102Z,86601.69
2022-12-04T08:56:24.862Z,86558.09
2022-12-04T08:58:52.241Z,86574.06
2022-12-04T09:01:19.357Z,86589.34
2022-12-04T09:03:46.541Z,86556.22
2022-12-04T09:06:15.395Z,86566.97
2022-12-04T09:08:43.323Z,86552.31
2022-12-04T09:11:16.396Z,86570.63
2022-12-04T09:13:44.329Z,86514.88
2022-12-04T09:16:17.276Z,86578.16
2022-12-04T09:18:46.138Z,86578.78
2022-12-04T09:21:15.555Z,86583.09
2022-12-04T09:23:43.003Z,86584.53
2022-12-04T09:26:28.626Z,86586.09
2022-12-04T09:28:58.049Z,86576.69
2022-12-04T09:31:25.286Z,86547.03
2022-12-04T09:33:52.938Z,86554.84
2022-12-04T09:36:20.165Z,86554.88
2022-12-04T09:38:50.601Z,86539.78
2022-12-04T09:41:47.979Z,86562.88
2022-12-04T09:44:27.092Z,86556.78
2022-12-04T09:47:02.628Z,86562.38
2022-12-04T09:49:41.794Z,86565.25
2022-12-04T09:52:47.532Z,86570.19
2022-12-04T09:55:23.499Z,86548.03
2022-12-04T09:58:01.345Z,86517.53
2022-12-04T10:00:31.726Z,86563.97
2022-12-04T10:03:06.564Z,86480.94
2022-12-04T10:05:48.383Z,86543.59
2022-12-04T10:08:29.300Z,86538.13
2022-12-04T10:11:00.324Z,86495.28
2022-12-04T10:13:42.204Z,86536.91
2022-12-04T10:16:21.484Z,86528.66
2022-12-04T10:18:57.362Z,86532.09
2022-12-04T10:21:36.931Z,86521.78
2022-12-04T10:24:29.256Z,86538.53
2022-12-04T10:27:00.479Z,86519.25
2022-12-04T10:29:34.934Z,86522.09
2022-12-04T10:32:27.607Z,86466.09
2022-12-04T10:34:58.640Z,86510.94
2022-12-04T10:37:26.748Z,86457.75
2022-12-04T10:40:22.359Z,86490.44
2022-12-04T10:43:02.741Z,86502.28
2022-12-04T10:45:29.742Z,86454.50
2022-12-04T10:47:56.817Z,86480.25
2022-12-04T10:50:25.741Z,86494.06
2022-12-04T10:52:52.835Z,86469.19
2022-12-04T10:55:34.592Z,86468.56
2022-12-04T10:58:02.990Z,86454.75
2022-12-04T11:00:36.036Z,86445.81
2022-12-04T11:03:09.409Z,86483.88
2022-12-04T11:05:46.270Z,86465.94
2022-12-04T11:08:37.649Z,86477.69
2022-12-04T11:11:15.214Z,86452.13
2022-12-04T11:13:42.644Z,86456.28
2022-12-04T11:16:32.591Z,86442.44
2022-12-04T11:18:59.611Z,86459.72
2022-12-04T11:21:29.987Z,86472.88
2022-12-04T11:23:57.316Z,86472.88
2022-12-04T11:26:42.107Z,86437.66
2022-12-04T11:29:15.478Z,86463.22
2022-12-04T11:31:51.906Z,86440.44
2022-12-04T11:34:22.555Z,86429.38
2022-12-04T11:36:56.088Z,86420.38
2022-12-04T11:39:30.044Z,86456.31
2022-12-04T11:42:26.151Z,86449.44
2022-12-04T11:44:58.548Z,86425.94
2022-12-04T11:47:29.501Z,86432.84
2022-12-04T11:50:11.590Z,86441.81
2022-12-04T11:53:01.147Z,86456.34
2022-12-04T11:55:50.637Z,86442.53
2022-12-04T11:58:32.694Z,86447.38
2022-12-04T12:01:30.649Z,86445.28
2022-12-04T12:04:03.380Z,86394.84
2022-12-04T12:06:39.551Z,86410.06
2022-12-04T12:09:17.294Z,86437.69
2022-12-04T12:11:56.736Z,86432.84
2022-12-04T12:14:41.244Z,86435.63
2022-12-04T12:17:15.732Z,86406.59
2022-12-04T12:20:01.361Z,86429.38
2022-12-04T12:22:57.043Z,86430.75
2022-12-04T12:25:39.642Z,86416.25
2022-12-04T12:28:17.883Z,86404.50
2022-12-04T12:31:02.487Z,86422.47
2022-12-04T12:33:45.174Z,86395.53
2022-12-04T12:36:14.209Z,86406.59
2022-12-04T12:38:49.444Z,86422.50
2022-12-04T12:41:17.804Z,86425.94
2022-12-04T12:43:51.300Z,86429.41
2022-12-04T12:46:30.893Z,86436.31
2022-12-04T12:49:12.730Z,86388.63
2022-12-04T12:51:39.682Z,86449.44
2022-12-04T12:54:24.412Z,86439.75
2022-12-04T12:56:55.859Z,86431.47
2022-12-04T12:59:27.591Z,86444.59
2022-12-04T13:02:13.286Z,86448.75
2022-12-04T13:04:48.298Z,86435.63
2022-12-04T13:07:42.147Z,86445.97
2022-12-04T13:10:17.124Z,86450.06
2022-12-04T13:12:45.512Z,86458.97
2022-12-04T13:15:16.462Z,86454.88
2022-12-04T13:17:45.345Z,86460.41
2022-12-04T13:20:27.340Z,86449.34
2022-12-04T13:23:07.323Z,86457.66
2022-12-04T13:25:43.381Z,86454.22
2022-12-04T13:28:43.552Z,86470.78
2022-12-04T13:31:19.272Z,86445.88
2022-12-04T13:34:11.442Z,86470.72
2022-12-04T13:37:26.637Z,86461.72
2022-12-04T13:40:15.403Z,86467.94
2022-12-04T13:42:42.633Z,86417.34
2022-12-04T13:45:13.338Z,86464.38
2022-12-04T13:47:40.290Z,86454.03
2022-12-04T13:50:08.589Z,86485.13
2022-12-04T13:52:42.758Z,86447.75
2022-12-04T13:55:26.504Z,86475.47
2022-12-04T13:58:16.598Z,86480.28
2022-12-04T14:00:44.747Z,86479.56
2022-12-04T14:03:23.772Z,86486.47
2022-12-04T14:05:51.459Z,86489.91
2022-12-04T14:08:28.436Z,86471.84
2022-12-04T14:11:02.396Z,86435.16
2022-12-04T14:13:50.138Z,86460.00
2022-12-04T14:16:25.896Z,86465.56
2022-12-04T14:18:56.654Z,86475.94
2022-12-04T14:21:24.936Z,86465.53
2022-12-04T14:23:53.447Z,86493.94
2022-12-04T14:26:37.239Z,86471.78
2022-12-04T14:29:28.533Z,86474.53
2022-12-04T14:31:58.123Z,86475.25
2022-12-04T14:34:29.928Z,86483.53
2022-12-04T14:36:58.058Z,86473.09
2022-12-04T14:39:47.170Z,86449.56
2022-12-04T14:42:37.645Z,86483.50
2022-12-04T14:45:17.489Z,86462.69
2022-12-04T14:47:50.787Z,86446.09
2022-12-04T14:50:46.221Z,86491.75
2022-12-04T14:53:19.329Z,86480.66
2022-12-04T14:55:52.820Z,86492.38
2022-12-04T14:58:30.827Z,86461.16
2022-12-04T15:01:19.986Z,86499.22
2022-12-04T15:03:53.435Z,86481.22
2022-12-04T15:06:29.620Z,86461.06
2022-12-04T15:09:21.184Z,86500.53
2022-12-04T15:12:11.236Z,86495.72
2022-12-04T15:14:49.153Z,86506.00
2022-12-04T15:17:17.625Z,86483.00
2022-12-04T15:19:46.276Z,86501.72
2022-12-04T15:22:24.015Z,86496.78
2022-12-04T15:24:52.410Z,86509.22
2022-12-04T15:27:27.344Z,86508.53
2022-12-04T15:29:58.885Z,86500.94
2022-12-04T15:32:28.808Z,86505.78
2022-12-04T15:35:05.904Z,86483.56
2022-12-04T15:37:33.349Z,86500.09
2022-12-04T15:40:00.665Z,86520.22
2022-12-04T15:42:30.856Z,86457.19
2022-12-04T15:45:03.808Z,86514.66
2022-12-04T15:47:49.448Z,86511.78
2022-12-04T15:50:16.594Z,86522.88
2022-12-04T15:52:50.707Z,86523.56
2022-12-04T15:55:19.534Z,86498.66
2022-12-04T15:57:54.294Z,86500.72
2022-12-04T16:00:31.384Z,86513.13
2022-12-04T16:02:59.890Z,86509.06
2022-12-04T16:05:36.711Z,86499.28
2022-12-04T16:08:24.727Z,86522.09
2022-12-04T16:11:04.136Z,86489.56
2022-12-04T16:13:34.767Z,86496.44
2022-12-04T16:16:06.594Z,86491.59
2022-12-04T16:18:33.798Z,86504.69
2022-12-04T16:21:01.127Z,86505.34
2022-12-04T16:23:28.220Z,86501.94
2022-12-04T16:25:55.581Z,86424.38
2022-12-04T16:28:22.713Z,86506.09
2022-12-04T16:30:52.397Z,86453.50
2022-12-04T16:33:19.673Z,86502.59
2022-12-04T16:35:46.703Z,86468.69
2022-12-04T16:38:20.373Z,86479.72
2022-12-04T16:40:49.175Z,86537.91
2022-12-04T16:43:17.539Z,86537.16
2022-12-04T16:45:52.551Z,86501.81
2022-12-04T16:48:20.019Z,86525.31
2022-12-04T16:50:47.874Z,86503.03
2022-12-04T16:53:23.703Z,86501.66
2022-12-04T16:55:52.237Z,86517.75
2022-12-04T16:58:20.511Z,86521.88
2022-12-04T17:00:56.474Z,86528.03
2022-12-04T17:03:34.459Z,86518.31
2022-12-04T17:06:01.730Z,86494.03
2022-12-04T17:08:29.904Z,86499.53
2022-12-04T17:10:57.648Z,86545.25
2022-12-04T17:13:24.704Z,86545.28
2022-12-04T17:15:51.946Z,86538.34
2022-12-04T17:18:21.656Z,86491.88
2022-12-04T17:20:49.242Z,86523.13
2022-12-04T17:23:16.764Z,86525.16
2022-12-04T17:25:43.767Z,86498.19
2022-12-04T17:28:11.882Z,86512.06
2022-12-04T17:30:38.968Z,86523.84
2022-12-04T17:33:06.037Z,86480.94
2022-12-04T17:35:33.112Z,86503.03
2022-12-04T17:38:05.582Z,86487.75
2022-12-04T17:40:33.749Z,86531.41
2022-12-04T17:43:00.695Z,86539.69
2022-12-04T17:45:28.710Z,86522.31
2022-12-04T17:47:55.857Z,86538.28
2022-12-04T17:50:22.948Z,86515.38
2022-12-04T17:52:50.032Z,86527.16
2022-12-04T17:55:17.117Z,86544.53
2022-12-04T17:57:44.092Z,86543.16
2022-12-04T18:00:11.540Z,86523.78
2022-12-04T18:02:42.535Z,86539.66
2022-12-04T18:05:10.068Z,86549.28
2022-12-04T18:07:37.244Z,86531.22
2022-12-04T18:10:04.943Z,86531.84
2022-12-04T18:12:31.995Z,86544.97
2022-12-04T18:14:59.375Z,86526.28
2022-12-04T18:17:27.248Z,86547.09
2022-12-04T18:19:56.838Z,86549.91
2022-12-04T18:22:27.676Z,86515.19
2022-12-04T18:24:54.712Z,86514.44
2022-12-04T18:27:21.760Z,86524.78
2022-12-04T18:29:48.805Z,86554.78
2022-12-04T18:32:15.912Z,86499.88
2022-12-04T18:34:43.137Z,86566.44
2022-12-04T18:37:10.265Z,86569.16
2022-12-04T18:39:37.180Z,86563.66
2022-12-04T18:42:04.325Z,86522.03
2022-12-04T18:44:31.382Z,86567.72
2022-12-04T18:46:58.338Z,86566.28
2022-12-04T18:49:25.601Z,86524.63
2022-12-04T18:51:52.586Z,86548.91
2022-12-04T18:54:21.977Z,86520.50
2022-12-04T18:56:49.979Z,86555.94
2022-12-04T18:59:20.897Z,86536.56
2022-12-04T19:01:50.439Z,86555.28
2022-12-04T19:04:19.646Z,86525.38
2022-12-04T19:06:54.449Z,86542.75
2022-12-04T19:09:47.107Z,86538.63
2022-12-04T19:12:13.022Z,86538.59
2022-12-04T19:14:40.285Z,86530.31
2022-12-04T19:17:07.686Z,86505.38
2022-12-04T19:19:34.708Z,86530.34
2022-12-04T19:22:02.208Z,86499.78
2022-12-04T19:24:29.272Z,86508.00
2022-12-04T19:26:56.476Z,86536.47
2022-12-04T19:29:23.530Z,86531.56
2022-12-04T19:31:53.544Z,86514.94
2022-12-04T19:34:23.344Z,86517.00
2022-12-04T19:36:50.324Z,86503.69
2022-12-04T19:39:17.414Z,86496.69
2022-12-04T19:41:44.429Z,86505.72
2022-12-04T19:44:46.972Z,86509.13
2022-12-04T19:46:58.546Z,86541.00
2022-12-04T19:49:25.655Z,86537.31
2022-12-04T19:51:52.751Z,86508.56
2022-12-04T19:54:20.952Z,86544.84
2022-12-04T19:56:51.302Z,86549.03
2022-12-04T19:59:19.806Z,86550.31
2022-12-04T20:01:47.111Z,86547.25
2022-12-04T20:04:14.308Z,86553.06
2022-12-04T20:06:44.078Z,86550.16
2022-12-04T20:09:14.397Z,86527.88
2022-12-04T20:11:41.988Z,86540.25
2022-12-04T20:14:10.316Z,86536.03
2022-12-04T20:16:38.326Z,86541.72
2022-12-04T20:19:07.092Z,86535.13
2022-12-04T20:21:34.198Z,86505.19
2022-12-04T20:24:05.184Z,86548.28
2022-12-04T20:26:38.773Z,86554.53
2022-12-04T20:29:07.502Z,86520.38
2022-12-04T20:31:37.312Z,86510.00
2022-12-04T20:34:07.058Z,86547.34
2022-12-04T20:36:39.965Z,86551.38
2022-12-04T20:39:08.597Z,86573.56
2022-12-04T20:41:36.620Z,86565.31
2022-12-04T20:44:05.955Z,86567.28
2022-12-04T20:46:38.488Z,86570.13
2022-12-04T20:49:10.705Z,86499.22
2022-12-04T20:51:42.336Z,86575.56
2022-12-04T20:54:13.238Z,86540.03
2022-12-04T20:56:40.469Z,86561.03
2022-12-04T20:59:13.185Z,86567.22
2022-12-04T21:01:40.673Z,86566.53
2022-12-04T21:04:07.925Z,86512.44
2022-12-04T21:06:37.446Z,86511.00
2022-12-04T21:09:06.946Z,86515.97
2022-12-04T21:11:36.760Z,86485.41
2022-12-04T21:14:30.106Z,86550.69
2022-12-04T21:16:57.505Z,86515.91
2022-12-04T21:19:24.848Z,86491.53
2022-12-04T21:21:52.803Z,86494.41
2022-12-04T21:24:21.989Z,86561.03
2022-12-04T21:26:49.422Z,86533.94
2022-12-04T21:29:16.773Z,86533.97
2022-12-04T21:31:43.932Z,86531.25
2022-12-04T21:34:14.056Z,86540.81
2022-12-04T21:36:41.722Z,86523.50
2022-12-04T21:39:09.299Z,86526.88
2022-12-04T21:41:55.069Z,86515.72
2022-12-04T21:44:22.119Z,86501.00
2022-12-04T21:46:49.556Z,86525.41
2022-12-04T21:49:18.235Z,86520.50
2022-12-04T21:51:57.397Z,86547.75
2022-12-04T21:54:26.801Z,86547.63
2022-12-04T21:56:54.303Z,86546.31
2022-12-04T21:59:21.282Z,86550.44
2022-12-04T22:01:48.474Z,86498.53
2022-12-04T22:04:15.803Z,86545.03
2022-12-04T22:06:43.246Z,86541.97
2022-12-04T22:09:12.180Z,86563.34
2022-12-04T22:11:41.698Z,86552.94
2022-12-04T22:14:09.809Z,86534.34
2022-12-04T22:16:41.849Z,86559.25
2022-12-04T22:19:11.118Z,86548.41
2022-12-04T22:21:38.543Z,86553.91
2022-12-04T22:24:06.104Z,86525.41
2022-12-04T22:26:33.619Z,86557.44
2022-12-04T22:29:00.685Z,86558.13
2022-12-04T22:31:29.932Z,86556.81
2022-12-04T22:33:59.882Z,86556.16
2022-12-04T22:36:32.784Z,86552.69
2022-12-04T22:39:15.467Z,86524.94
2022-12-04T22:41:42.465Z,86520.75
2022-12-04T22:44:09.517Z,86552.66
2022-12-04T22:46:36.548Z,86519.31
2022-12-04T22:49:03.683Z,86514.66
2022-12-04T22:51:30.779Z,86538.91
2022-12-04T22:53:58.558Z,86533.38
2022-12-04T22:56:28.728Z,86538.88
2022-12-04T22:58:56.468Z,86522.22
2022-12-04T23:01:31.767Z,86544.09
2022-12-04T23:03:59.502Z,86519.22
2022-12-04T23:06:28.531Z,86533.34
2022-12-04T23:09:04.970Z,86527.94
2022-12-04T23:11:32.112Z,86527.38
2022-12-04T23:14:01.864Z,86521.03
2022-12-04T23:16:31.072Z,86489.84
2022-12-04T23:18:58.813Z,86532.22
2022-12-04T23:21:26.795Z,86530.91
2022-12-04T23:23:55.207Z,86493.31
2022-12-04T23:26:25.798Z,86524.03
2022-12-04T23:28:52.956Z,86476.84
2022-12-04T23:31:20.200Z,86511.53
2022-12-04T23:33:47.593Z,86535.16
2022-12-04T23:36:15.011Z,86536.53
2022-12-04T23:38:43.332Z,86533.91
2022-12-04T23:41:19.809Z,86468.53
2022-12-04T23:43:48.079Z,86540.13
2022-12-04T23:46:19.249Z,86535.28
2022-12-04T23:48:47.418Z,86479.66
2022-12-04T23:51:17.785Z,86527.63
2022-12-04T23:53:45.637Z,86492.84
2022-12-04T23:56:18.909Z,86474.22
2022-12-04T23:58:49.197Z,86514.50
